Terminal Aerodrome Forecast
Issued by NWS

Home | Current Version | Previous Version | Text Only | Print | Product List | Glossary On
Versions: 1 2 3 4 5 6 7 8 9 10 11 12 13 14 15 16 17 18 19 20 21 22 23 24 25 26 27 28 29 30 31 32 33 34 35 36 37 38 39
478
FTUS45 KBOU 312332
TAFAPA
TAF
KAPA 312332Z 0100/0124 08014G22KT P6SM VCTS SCT070CB
     FM010300 13012KT P6SM SCT100
     FM010500 16012KT P6SM FEW100
     FM012200 16014G22KT P6SM SCT090=

USA.gov is the U.S. government's official web portal to all federal, state and local government web resources and services.